createdAt,value
2022-11-21T00:02:13.996Z,-0.61
2022-11-21T00:04:42.318Z,-0.58
2022-11-21T00:07:10.968Z,-0.58
2022-11-21T00:09:39.487Z,-0.68
2022-11-21T00:12:09.210Z,-0.74
2022-11-21T00:14:37.617Z,-0.67
2022-11-21T00:17:06.053Z,-0.69
2022-11-21T00:19:34.232Z,-0.75
2022-11-21T00:22:02.510Z,-0.76
2022-11-21T00:24:30.895Z,-0.79
2022-11-21T00:26:59.365Z,-0.77
2022-11-21T00:29:28.571Z,-0.70
2022-11-21T00:31:57.050Z,-0.61
2022-11-21T00:34:25.478Z,-0.52
2022-11-21T00:36:53.911Z,-0.43
2022-11-21T00:39:22.182Z,-0.38
2022-11-21T00:41:50.339Z,-0.30
2022-11-21T00:44:18.504Z,-0.28
2022-11-21T00:46:46.916Z,-0.25
2022-11-21T00:49:15.165Z,-0.30
2022-11-21T00:51:43.577Z,-0.21
2022-11-21T00:54:11.978Z,-0.23
2022-11-21T00:56:40.666Z,-0.16
2022-11-21T00:59:09.135Z,-0.18
2022-11-21T01:01:37.518Z,-0.11
2022-11-21T01:04:05.887Z,-0.09
2022-11-21T01:06:34.154Z,-0.05
2022-11-21T01:09:02.629Z,-0.01
2022-11-21T01:11:31.418Z,0.07
2022-11-21T01:13:59.658Z,0.15
2022-11-21T01:16:29.167Z,0.24
2022-11-21T01:18:58.393Z,0.32
2022-11-21T01:21:30.379Z,0.39
2022-11-21T01:24:03.354Z,0.47
2022-11-21T01:26:35.186Z,0.55
2022-11-21T01:29:04.399Z,0.63
2022-11-21T01:31:32.866Z,0.66
2022-11-21T01:34:02.129Z,0.68
2022-11-21T01:36:32.866Z,0.71
2022-11-21T01:39:05.231Z,0.70
2022-11-21T01:41:40.114Z,0.75
2022-11-21T01:44:22.029Z,0.78
2022-11-21T01:46:51.936Z,0.82
2022-11-21T01:49:23.291Z,0.89
2022-11-21T01:52:06.854Z,0.95
2022-11-21T01:55:00.185Z,1.01
2022-11-21T01:57:37.474Z,1.06
2022-11-21T02:00:11.384Z,1.11
2022-11-21T02:02:48.973Z,1.14
2022-11-21T02:05:22.251Z,1.15
2022-11-21T02:07:55.412Z,1.28
2022-11-21T02:10:24.219Z,1.32
2022-11-21T02:12:55.843Z,1.34
2022-11-21T02:15:27.990Z,1.37
2022-11-21T02:17:56.830Z,1.38
2022-11-21T02:20:28.319Z,1.39
2022-11-21T02:23:15.599Z,1.43
2022-11-21T02:25:44.306Z,1.49
2022-11-21T02:28:16.596Z,1.54
2022-11-21T02:30:45.059Z,1.64
2022-11-21T02:33:14.332Z,1.70
2022-11-21T02:35:42.905Z,1.75
2022-11-21T02:38:34.284Z,1.77
2022-11-21T02:41:09.979Z,1.80
2022-11-21T02:43:48.115Z,1.83
2022-11-21T02:46:16.502Z,1.86
2022-11-21T02:48:45.294Z,1.89
2022-11-21T02:51:13.907Z,1.90
2022-11-21T02:53:42.249Z,1.93
2022-11-21T02:56:10.728Z,1.93
2022-11-21T02:58:39.526Z,1.96
2022-11-21T03:01:08.128Z,1.99
2022-11-21T03:03:36.422Z,2.05
2022-11-21T03:06:04.799Z,2.08
2022-11-21T03:08:33.250Z,2.10
2022-11-21T03:11:01.551Z,2.15
2022-11-21T03:13:29.901Z,2.15
2022-11-21T03:15:59.720Z,2.18
2022-11-21T03:18:28.070Z,2.20
2022-11-21T03:20:58.250Z,2.21
2022-11-21T03:23:26.825Z,2.22
2022-11-21T03:25:55.199Z,2.22
2022-11-21T03:28:23.415Z,2.22
2022-11-21T03:30:51.901Z,2.18
2022-11-21T03:33:20.285Z,2.22
2022-11-21T03:35:49.572Z,2.23
2022-11-21T03:38:18.475Z,2.26
2022-11-21T03:40:46.940Z,2.25
2022-11-21T03:43:15.501Z,2.28
2022-11-21T03:45:48.315Z,2.27
2022-11-21T03:48:16.785Z,2.25
2022-11-21T03:50:45.279Z,2.23
2022-11-21T03:53:13.688Z,2.22
2022-11-21T03:55:43.142Z,2.21
2022-11-21T03:58:11.934Z,2.22
2022-11-21T04:00:40.725Z,2.23
2022-11-21T04:03:09.196Z,2.24
2022-11-21T04:05:37.578Z,2.28
2022-11-21T04:08:06.041Z,2.30
2022-11-21T04:10:34.377Z,2.31
2022-11-21T04:13:04.390Z,2.28
2022-11-21T04:15:32.721Z,2.30
2022-11-21T04:18:01.070Z,2.32
2022-11-21T04:20:29.422Z,2.30
2022-11-21T04:22:57.897Z,2.31
2022-11-21T04:25:26.303Z,2.32
2022-11-21T04:27:59.591Z,2.30
2022-11-21T04:30:29.377Z,2.33
2022-11-21T04:32:57.975Z,2.35
2022-11-21T04:35:28.208Z,2.37
2022-11-21T04:37:57.130Z,2.39
2022-11-21T04:40:26.602Z,2.42
2022-11-21T04:42:55.605Z,2.48
2022-11-21T04:45:23.943Z,2.49
2022-11-21T04:47:52.471Z,2.52
2022-11-21T04:50:21.558Z,2.51
2022-11-21T04:52:57.486Z,2.40
2022-11-21T04:55:31.173Z,2.44
2022-11-21T04:58:00.730Z,2.44
2022-11-21T05:00:30.396Z,2.49
2022-11-21T05:03:04.356Z,2.47
2022-11-21T05:05:33.649Z,2.53
2022-11-21T05:08:02.802Z,2.54
2022-11-21T05:10:31.323Z,2.59
2022-11-21T05:13:19.261Z,2.61
2022-11-21T05:15:51.783Z,2.64
2022-11-21T05:18:20.510Z,2.63
2022-11-21T05:20:49.191Z,2.67
2022-11-21T05:23:18.819Z,2.74
2022-11-21T05:25:47.853Z,2.80
2022-11-21T05:28:16.602Z,2.79
2022-11-21T05:30:45.721Z,2.76
2022-11-21T05:33:14.614Z,2.76
2022-11-21T05:35:43.849Z,2.79
2022-11-21T05:38:13.917Z,2.82
2022-11-21T05:40:42.673Z,2.85
2022-11-21T05:43:32.267Z,2.82
2022-11-21T05:46:01.217Z,2.79
2022-11-21T05:48:29.554Z,2.76
2022-11-21T05:50:58.567Z,2.75
2022-11-21T05:53:27.229Z,2.70
2022-11-21T05:55:55.932Z,2.63
2022-11-21T05:58:24.408Z,2.65
2022-11-21T06:00:59.896Z,2.69
2022-11-21T06:03:33.206Z,2.64
2022-11-21T06:06:13.211Z,2.70
2022-11-21T06:08:43.820Z,2.69
2022-11-21T06:11:14.855Z,2.71
2022-11-21T06:13:43.852Z,2.78
2022-11-21T06:16:14.894Z,2.77
2022-11-21T06:18:46.036Z,2.76
2022-11-21T06:21:17.407Z,2.65
2022-11-21T06:23:46.989Z,2.77
2022-11-21T06:26:18.220Z,2.79
2022-11-21T06:28:48.890Z,2.81
2022-11-21T06:31:20.413Z,2.84
2022-11-21T06:33:53.714Z,2.84
2022-11-21T06:36:22.702Z,2.85
2022-11-21T06:38:54.796Z,2.93
2022-11-21T06:41:26.276Z,2.91
2022-11-21T06:43:54.683Z,2.92
2022-11-21T06:46:23.279Z,2.92
2022-11-21T06:48:52.251Z,2.91
2022-11-21T06:51:23.864Z,2.93
2022-11-21T06:53:57.935Z,2.95
2022-11-21T06:56:28.541Z,2.96
2022-11-21T06:58:57.642Z,2.96
2022-11-21T07:01:26.865Z,3.01
2022-11-21T07:03:55.997Z,3.06
2022-11-21T07:06:25.028Z,3.11
2022-11-21T07:11:45.400Z,3.23
2022-11-21T07:14:13.783Z,3.27
2022-11-21T07:16:42.448Z,3.23
2022-11-21T07:19:12.016Z,3.36
2022-11-21T07:21:44.122Z,3.37
2022-11-21T07:24:13.787Z,3.40
2022-11-21T07:26:43.564Z,3.41
2022-11-21T07:29:13.121Z,3.43
2022-11-21T07:31:42.218Z,3.44
2022-11-21T07:34:11.651Z,3.46
2022-11-21T07:36:40.122Z,3.49
2022-11-21T07:39:10.436Z,3.55
2022-11-21T07:41:39.532Z,3.61
2022-11-21T07:44:08.041Z,3.68
2022-11-21T07:46:36.814Z,3.73
2022-11-21T07:49:06.003Z,3.77
2022-11-21T07:51:35.086Z,3.78
2022-11-21T07:54:04.067Z,3.80
2022-11-21T07:56:33.081Z,3.84
2022-11-21T07:59:02.487Z,3.79
2022-11-21T08:01:32.634Z,3.88
2022-11-21T08:04:01.273Z,3.94
2022-11-21T08:06:29.627Z,3.97
2022-11-21T08:08:58.188Z,4.00
2022-11-21T08:11:27.176Z,4.04
2022-11-21T08:13:56.339Z,4.09
2022-11-21T08:16:28.609Z,4.13
2022-11-21T08:18:57.189Z,4.15
2022-11-21T08:21:27.772Z,4.16
2022-11-21T08:23:56.711Z,4.17
2022-11-21T08:26:25.406Z,4.23
2022-11-21T08:28:59.615Z,4.27
2022-11-21T08:31:29.024Z,4.29
2022-11-21T08:33:58.112Z,4.33
2022-11-21T08:36:26.588Z,4.40
2022-11-21T08:38:55.161Z,4.48
2022-11-21T08:41:42.402Z,4.55
2022-11-21T08:44:14.064Z,4.62
2022-11-21T08:46:43.963Z,4.66
2022-11-21T08:49:12.319Z,4.71
2022-11-21T08:51:40.720Z,4.79
2022-11-21T08:54:10.128Z,4.85
2022-11-21T08:56:38.807Z,4.90
2022-11-21T08:59:07.819Z,4.93
2022-11-21T09:01:36.546Z,4.95
2022-11-21T09:04:06.304Z,4.99
2022-11-21T09:06:35.411Z,5.04
2022-11-21T09:09:06.881Z,5.08
2022-11-21T09:11:42.404Z,5.13
2022-11-21T09:14:29.671Z,5.19
2022-11-21T09:17:16.734Z,5.24
2022-11-21T09:19:45.213Z,5.31
2022-11-21T09:22:13.505Z,5.37
2022-11-21T09:24:41.767Z,5.43
2022-11-21T09:27:10.569Z,5.49
2022-11-21T09:29:39.246Z,5.52
2022-11-21T09:32:07.744Z,5.56
2022-11-21T09:34:36.412Z,5.63
2022-11-21T09:37:04.675Z,5.71
2022-11-21T09:39:33.179Z,5.79
2022-11-21T09:42:26.219Z,5.86
2022-11-21T09:45:37.623Z,5.96
2022-11-21T09:48:13.848Z,6.05
2022-11-21T09:50:53.399Z,6.04
2022-11-21T09:53:32.554Z,6.16
2022-11-21T09:56:12.812Z,6.18
2022-11-21T09:58:52.264Z,6.19
2022-11-21T10:01:20.753Z,6.22
2022-11-21T10:03:52.797Z,6.24
2022-11-21T10:06:32.613Z,6.26
2022-11-21T10:09:17.871Z,6.28
2022-11-21T10:12:20.557Z,6.35
2022-11-21T10:15:39.758Z,6.44
2022-11-21T10:18:15.264Z,6.52
2022-11-21T10:21:22.005Z,6.59
2022-11-21T10:24:22.557Z,6.69
2022-11-21T10:26:55.116Z,6.75
2022-11-21T10:29:42.333Z,6.80
2022-11-21T10:32:24.500Z,6.84
2022-11-21T10:34:58.170Z,6.86
2022-11-21T10:37:38.434Z,6.88
2022-11-21T10:40:19.985Z,6.91
2022-11-21T10:43:41.565Z,6.97
2022-11-21T10:46:11.912Z,7.04
2022-11-21T10:48:41.567Z,7.10
2022-11-21T10:51:13.232Z,7.16
2022-11-21T10:54:04.609Z,7.19
2022-11-21T10:56:37.217Z,7.25
2022-11-21T10:59:19.275Z,7.30
2022-11-21T11:01:56.219Z,7.34
2022-11-21T11:04:28.237Z,7.38
2022-11-21T11:07:00.340Z,7.42
2022-11-21T11:09:32.853Z,7.48
2022-11-21T11:12:46.349Z,7.52
2022-11-21T11:15:24.346Z,7.60
2022-11-21T11:17:54.780Z,7.65
2022-11-21T11:20:34.522Z,7.71
2022-11-21T11:23:25.682Z,7.71
2022-11-21T11:25:55.649Z,7.76
2022-11-21T11:28:25.845Z,7.73
2022-11-21T11:30:55.901Z,7.64
2022-11-21T11:33:32.607Z,7.62
2022-11-21T11:36:13.659Z,7.61
2022-11-21T11:38:47.380Z,7.57
2022-11-21T11:42:02.328Z,7.51
2022-11-21T11:44:55.689Z,7.39
2022-11-21T11:47:30.944Z,7.32
2022-11-21T11:50:21.829Z,7.23
2022-11-21T11:53:00.961Z,7.11
2022-11-21T11:55:41.811Z,7.02
2022-11-21T11:59:04.726Z,6.92
2022-11-21T12:01:39.053Z,6.68
2022-11-21T12:04:17.586Z,6.47
2022-11-21T12:07:54.074Z,6.32
2022-11-21T12:10:05.275Z,6.20
2022-11-21T12:12:39.805Z,6.10
2022-11-21T12:15:49.852Z,5.98
2022-11-21T12:18:21.318Z,5.76
2022-11-21T12:21:14.657Z,5.61
2022-11-21T12:23:50.844Z,5.53
2022-11-21T12:26:50.640Z,5.44
2022-11-21T12:29:28.775Z,5.44
2022-11-21T12:32:30.596Z,5.36
2022-11-21T12:35:40.367Z,5.24
2022-11-21T12:38:34.044Z,5.09
2022-11-21T12:41:36.486Z,4.94
2022-11-21T12:44:39.915Z,4.77
2022-11-21T12:47:52.114Z,4.66
2022-11-21T12:50:47.119Z,4.59
2022-11-21T12:53:53.511Z,4.52
2022-11-21T12:56:38.624Z,4.45
2022-11-21T12:59:12.994Z,4.44
2022-11-21T13:01:53.795Z,4.43
2022-11-21T13:04:29.302Z,4.41
2022-11-21T13:06:58.917Z,4.39
2022-11-21T13:09:40.426Z,4.37
2022-11-21T13:12:22.612Z,4.34
2022-11-21T13:15:27.135Z,4.30
2022-11-21T13:18:45.386Z,4.17
2022-11-21T13:21:43.358Z,4.16
2022-11-21T13:24:13.283Z,4.14
2022-11-21T13:26:51.782Z,4.14
2022-11-21T13:29:20.367Z,4.11
2022-11-21T13:31:49.052Z,4.05
2022-11-21T13:34:38.462Z,4.02
2022-11-21T13:37:07.127Z,3.92
2022-11-21T13:39:37.519Z,3.84
2022-11-21T13:42:29.080Z,3.76
2022-11-21T13:44:58.468Z,3.69
2022-11-21T13:47:26.877Z,3.62
2022-11-21T13:50:04.536Z,3.59
2022-11-21T13:52:49.016Z,3.52
2022-11-21T13:55:32.857Z,3.40
2022-11-21T13:58:20.060Z,3.33
2022-11-21T14:01:07.646Z,3.27
2022-11-21T14:03:59.844Z,3.17
2022-11-21T14:06:34.239Z,3.09
2022-11-21T14:09:24.839Z,3.07
2022-11-21T14:11:58.964Z,3.03
2022-11-21T14:14:33.217Z,2.98
2022-11-21T14:17:24.055Z,2.97
2022-11-21T14:19:56.664Z,2.92
2022-11-21T14:22:38.723Z,2.81
2022-11-21T14:25:17.455Z,2.81
2022-11-21T14:27:50.674Z,2.78
2022-11-21T14:30:40.391Z,2.76
2022-11-21T14:33:29.425Z,2.70
2022-11-21T14:36:13.326Z,2.66
2022-11-21T14:39:07.676Z,2.53
2022-11-21T14:41:39.365Z,2.57
2022-11-21T14:44:07.901Z,2.51
2022-11-21T14:46:41.117Z,2.46
2022-11-21T14:49:20.364Z,2.41
2022-11-21T14:52:12.228Z,2.39
2022-11-21T14:55:14.932Z,2.39
2022-11-21T14:57:42.743Z,2.40
2022-11-21T15:00:36.207Z,2.40
2022-11-21T15:03:05.850Z,2.37
2022-11-21T15:11:17.519Z,2.40
2022-11-21T15:14:14.448Z,2.40
2022-11-21T15:16:40.373Z,2.43
2022-11-21T15:19:11.142Z,2.45
2022-11-21T15:21:46.497Z,2.44
2022-11-21T15:24:31.318Z,2.45
2022-11-21T15:27:01.325Z,2.31
2022-11-21T15:29:31.829Z,2.30
2022-11-21T15:32:07.903Z,2.29
2022-11-21T15:34:37.374Z,2.27
2022-11-21T15:37:16.045Z,2.28
2022-11-21T15:39:48.385Z,2.27
2022-11-21T15:42:33.251Z,2.27
2022-11-21T15:45:03.389Z,2.25
2022-11-21T15:47:31.959Z,2.18
2022-11-21T15:50:01.773Z,2.21
2022-11-21T15:52:31.196Z,2.21
2022-11-21T15:55:01.250Z,2.23
2022-11-21T15:57:33.559Z,2.25
2022-11-21T16:00:04.528Z,2.22
2022-11-21T16:02:40.520Z,2.17
2022-11-21T16:05:14.293Z,2.14
2022-11-21T16:07:43.471Z,2.15
2022-11-21T16:10:19.800Z,2.18
2022-11-21T16:12:52.049Z,2.19
2022-11-21T16:15:22.290Z,2.18
2022-11-21T16:17:52.578Z,2.19
2022-11-21T16:20:21.989Z,2.20
2022-11-21T16:22:51.410Z,2.22
2022-11-21T16:25:21.224Z,2.26
2022-11-21T16:27:50.255Z,2.31
2022-11-21T16:30:19.810Z,2.38
2022-11-21T16:32:49.367Z,2.32
2022-11-21T16:35:19.412Z,2.55
2022-11-21T16:37:49.383Z,2.60
2022-11-21T16:40:18.905Z,2.60
2022-11-21T16:42:49.917Z,2.65
2022-11-21T16:45:20.372Z,2.67
2022-11-21T16:47:50.495Z,2.63
2022-11-21T16:50:20.981Z,2.67
2022-11-21T16:52:50.972Z,2.73
2022-11-21T16:55:20.034Z,2.78
2022-11-21T16:57:49.957Z,2.80
2022-11-21T17:00:24.820Z,2.82
2022-11-21T17:02:55.454Z,2.85
2022-11-21T17:05:26.240Z,2.85
2022-11-21T17:07:57.673Z,2.87
2022-11-21T17:10:33.839Z,2.91
2022-11-21T17:13:05.420Z,2.97
2022-11-21T17:15:35.636Z,3.03
2022-11-21T17:18:05.946Z,3.08
2022-11-21T17:20:35.887Z,3.11
2022-11-21T17:23:06.195Z,3.11
2022-11-21T17:25:36.508Z,3.07
2022-11-21T17:28:07.519Z,3.04
2022-11-21T17:30:44.703Z,3.02
2022-11-21T17:33:14.213Z,3.05
2022-11-21T17:35:45.201Z,3.06
2022-11-21T17:38:14.974Z,3.10
2022-11-21T17:40:45.514Z,3.18
2022-11-21T17:43:15.474Z,3.26
2022-11-21T17:45:47.061Z,3.29
2022-11-21T17:48:17.555Z,3.30
2022-11-21T17:50:47.904Z,3.29
2022-11-21T17:53:18.353Z,3.24
2022-11-21T17:55:50.447Z,3.18
2022-11-21T17:58:19.790Z,3.11
2022-11-21T18:00:54.708Z,3.10
2022-11-21T18:03:25.809Z,2.99
2022-11-21T18:06:02.804Z,3.02
2022-11-21T18:08:35.838Z,3.09
2022-11-21T18:11:07.541Z,3.09
2022-11-21T18:13:38.138Z,3.02
2022-11-21T18:16:10.489Z,2.94
2022-11-21T18:18:40.303Z,2.85
2022-11-21T18:21:10.011Z,2.77
2022-11-21T18:23:39.522Z,2.69
2022-11-21T18:26:21.654Z,2.77
2022-11-21T18:29:07.291Z,2.81
2022-11-21T18:31:43.081Z,2.85
2022-11-21T18:34:14.405Z,2.89
2022-11-21T18:36:43.707Z,2.93
2022-11-21T18:39:15.161Z,2.97
2022-11-21T18:41:44.344Z,2.99
2022-11-21T18:44:20.167Z,3.00
2022-11-21T18:46:50.834Z,3.03
2022-11-21T18:49:19.863Z,3.06
2022-11-21T18:51:50.003Z,3.10
2022-11-21T18:54:19.550Z,3.13
2022-11-21T18:56:48.567Z,3.10
2022-11-21T18:59:17.796Z,3.05
2022-11-21T19:01:47.653Z,2.97
2022-11-21T19:04:18.233Z,2.94
2022-11-21T19:06:48.023Z,2.95
2022-11-21T19:09:18.032Z,2.97
2022-11-21T19:11:48.802Z,3.00
2022-11-21T19:14:19.060Z,3.05
2022-11-21T19:16:48.685Z,3.08
2022-11-21T19:19:35.575Z,3.12
2022-11-21T19:22:07.923Z,3.16
2022-11-21T19:24:37.193Z,3.21
2022-11-21T19:27:07.463Z,3.26
2022-11-21T19:29:36.805Z,3.31
2022-11-21T19:32:07.325Z,3.35
2022-11-21T19:34:36.859Z,3.39
2022-11-21T19:37:06.617Z,3.41
2022-11-21T19:39:35.324Z,3.41
2022-11-21T19:42:04.441Z,3.41
2022-11-21T19:44:33.943Z,3.40
2022-11-21T19:47:11.987Z,3.40
2022-11-21T19:49:41.600Z,3.37
2022-11-21T19:52:11.226Z,3.29
2022-11-21T19:54:40.961Z,3.32
2022-11-21T19:57:13.849Z,3.32
2022-11-21T19:59:46.846Z,3.32
2022-11-21T20:02:21.972Z,3.34
2022-11-21T20:04:54.850Z,3.37
2022-11-21T20:07:28.589Z,3.42
2022-11-21T20:09:59.492Z,3.48
2022-11-21T20:12:29.699Z,3.50
2022-11-21T20:14:59.560Z,3.52
2022-11-21T20:17:30.647Z,3.54
2022-11-21T20:20:01.000Z,3.56
2022-11-21T20:22:30.473Z,3.57
2022-11-21T20:24:59.669Z,3.57
2022-11-21T20:27:30.022Z,3.57
2022-11-21T20:29:59.197Z,3.59
2022-11-21T20:32:29.367Z,3.59
2022-11-21T20:34:59.124Z,3.58
2022-11-21T20:37:31.425Z,3.58
2022-11-21T20:40:01.010Z,3.60
2022-11-21T20:42:31.139Z,3.62
2022-11-21T20:47:50.432Z,3.64
2022-11-21T20:50:48.826Z,3.65
2022-11-21T20:56:04.161Z,3.68
2022-11-21T20:58:36.635Z,3.55
2022-11-21T21:01:07.447Z,3.66
2022-11-21T21:03:37.348Z,3.65
2022-11-21T21:06:09.084Z,3.64
2022-11-21T21:08:38.801Z,3.64
2022-11-21T21:11:44.515Z,3.61
2022-11-21T21:14:09.004Z,3.60
2022-11-21T21:16:39.769Z,3.58
2022-11-21T21:19:09.863Z,3.59
2022-11-21T21:21:42.865Z,3.60
2022-11-21T21:24:14.416Z,3.62
2022-11-21T21:26:47.546Z,3.61
2022-11-21T21:29:20.104Z,3.60
2022-11-21T21:31:52.380Z,3.59
2022-11-21T21:34:23.110Z,3.57
2022-11-21T21:36:54.241Z,3.56
2022-11-21T21:39:28.730Z,3.53
2022-11-21T21:42:00.839Z,3.48
2022-11-21T21:44:33.858Z,3.46
2022-11-21T21:47:05.302Z,3.44
2022-11-21T21:49:43.898Z,3.44
2022-11-21T21:52:21.749Z,3.46
2022-11-21T21:54:52.137Z,3.48
2022-11-21T21:57:25.058Z,3.50
2022-11-21T21:59:56.234Z,3.51
2022-11-21T22:02:25.631Z,3.49
2022-11-21T22:04:54.542Z,3.45
2022-11-21T22:07:23.210Z,3.42
2022-11-21T22:09:51.683Z,3.41
2022-11-21T22:12:20.276Z,3.41
2022-11-21T22:14:49.580Z,3.42
2022-11-21T22:17:18.034Z,3.41
2022-11-21T22:22:42.859Z,3.45
2022-11-21T22:25:11.362Z,3.47
2022-11-21T22:27:39.997Z,3.47
2022-11-21T22:30:11.928Z,3.50
2022-11-21T22:32:40.607Z,3.49
2022-11-21T22:35:09.368Z,3.47
2022-11-21T22:37:38.647Z,3.45
2022-11-21T22:40:07.961Z,3.42
2022-11-21T22:42:36.460Z,3.39
2022-11-21T22:45:05.454Z,3.40
2022-11-21T22:47:33.825Z,3.44
2022-11-21T22:50:05.358Z,3.47
2022-11-21T22:52:33.990Z,3.47
2022-11-21T22:55:02.454Z,3.46
2022-11-21T22:57:33.888Z,3.47
2022-11-21T23:00:02.660Z,3.48
2022-11-21T23:02:33.422Z,3.46
2022-11-21T23:05:02.415Z,3.44
2022-11-21T23:07:32.378Z,3.38
2022-11-21T23:10:01.235Z,3.39
2022-11-21T23:12:30.891Z,3.41
2022-11-21T23:14:59.922Z,3.43
2022-11-21T23:17:28.132Z,3.40
2022-11-21T23:19:56.677Z,3.45
2022-11-21T23:22:25.271Z,3.45
2022-11-21T23:24:53.533Z,3.46
2022-11-21T23:27:21.771Z,3.47
2022-11-21T23:29:50.096Z,3.45
2022-11-21T23:32:18.716Z,3.44
2022-11-21T23:34:47.566Z,3.45
2022-11-21T23:37:15.947Z,3.46
2022-11-21T23:39:44.120Z,3.48
2022-11-21T23:42:12.363Z,3.40
2022-11-21T23:44:40.633Z,3.54
2022-11-21T23:47:08.968Z,3.54
2022-11-21T23:49:37.235Z,3.51
2022-11-21T23:52:05.816Z,3.46
2022-11-21T23:54:34.589Z,3.42
2022-11-21T23:57:02.885Z,3.36
2022-11-21T23:59:31.638Z,3.36
